Time;durP1;ratioP1;P1;durP2;ratioP2;P2;SDS_P1;SDS_P2;PMS_P1;PMS_P2;Temp;Humidity;BMP_temperature;BMP_pressure;BME280_temperature;BME280_humidity;BME280_pressure;Samples;Min_cycle;Max_cycle;Signal;HPM_P1;HPM_P2
2022/01/20 00:02:08;;;;;;;3.93;2.20;;;-1.60;99.90;;;;;;5061037;28;20471;-56
2022/01/20 00:04:43;;;;;;;3.83;1.80;;;-1.50;99.90;;;;;;5060927;28;21002;-56
2022/01/20 00:26:23;;;;;;;2.80;2.20;;;-1.30;99.90;;;;;;5059273;28;20447;-55
2022/01/20 00:28:55;;;;;;;2.10;1.90;;;-1.30;99.90;;;;;;5058189;28;20699;-56
2022/01/20 00:31:36;;;;;;;2.60;2.40;;;-1.20;99.90;;;;;;5048402;28;20723;-55
2022/01/20 00:34:18;;;;;;;3.17;2.30;;;-1.60;99.90;;;;;;5048392;28;20502;-58
2022/01/20 00:39:31;;;;;;;2.27;1.70;;;-1.60;99.90;;;;;;5048201;28;20865;-55
2022/01/20 00:41:59;;;;;;;3.57;3.07;;;-1.60;99.90;;;;;;5048450;28;20492;-61
2022/01/20 00:44:26;;;;;;;4.93;3.57;;;-1.50;99.90;;;;;;5052488;28;21441;-57
2022/01/20 00:46:55;;;;;;;3.13;2.83;;;-1.40;99.90;;;;;;5046482;28;20717;-57
2022/01/20 00:49:22;;;;;;;2.30;2.10;;;-1.40;99.90;;;;;;5053350;28;20492;-55
2022/01/20 00:51:49;;;;;;;2.57;1.70;;;-1.60;99.90;;;;;;5055250;28;20444;-55
2022/01/20 00:54:16;;;;;;;2.57;2.03;;;-1.90;99.90;;;;;;5050947;28;20481;-57
2022/01/20 00:56:43;;;;;;;2.50;2.30;;;-2.10;99.90;;;;;;5053823;28;20975;-57
2022/01/20 00:59:11;;;;;;;2.10;2.00;;;-2.00;99.90;;;;;;5055550;28;20497;-55
2022/01/20 01:01:38;;;;;;;3.40;2.90;;;-1.80;99.90;;;;;;5058545;28;20485;-57
2022/01/20 01:04:05;;;;;;;5.20;3.23;;;-1.60;99.90;;;;;;5064467;28;20440;-57
2022/01/20 01:06:43;;;;;;;4.10;3.13;;;-1.50;99.90;;;;;;5043045;28;20799;-55
2022/01/20 01:09:10;;;;;;;3.07;2.33;;;-1.40;99.90;;;;;;5045967;28;20531;-57
2022/01/20 01:11:39;;;;;;;2.67;2.47;;;-1.60;99.90;;;;;;5055568;28;20442;-56
2022/01/20 01:14:06;;;;;;;3.03;2.57;;;-2.10;99.90;;;;;;5045990;28;20783;-56
2022/01/20 01:19:58;;;;;;;2.60;2.10;;;-2.00;99.90;;;;;;5048248;28;20541;-55
2022/01/20 01:22:21;;;;;;;2.63;2.27;;;-1.60;99.90;;;;;;5058457;28;20565;-56
2022/01/20 01:24:52;;;;;;;3.70;2.40;;;-1.40;99.90;;;;;;5061801;28;20646;-55
2022/01/20 01:27:20;;;;;;;2.97;2.40;;;-1.30;99.90;;;;;;5045098;28;20507;-55
2022/01/20 01:30:04;;;;;;;2.40;2.17;;;-1.30;99.90;;;;;;5055991;28;20595;-57
2022/01/20 01:32:43;;;;;;;2.73;2.53;;;-1.20;99.90;;;;;;5052231;28;20458;-55
2022/01/20 01:35:11;;;;;;;5.60;2.80;;;-1.10;99.90;;;;;;5047179;28;20447;-55
2022/01/20 01:40:19;;;;;;;2.60;2.40;;;-1.70;99.90;;;;;;5046651;28;20451;-55
2022/01/20 01:42:49;;;;;;;4.03;2.40;;;-1.90;99.90;;;;;;5063309;28;20443;-56
2022/01/20 01:45:18;;;;;;;2.50;2.23;;;-1.80;99.90;;;;;;5049386;28;20533;-55
2022/01/20 01:47:48;;;;;;;2.67;2.00;;;-1.90;99.90;;;;;;5052108;28;20532;-61
2022/01/20 01:50:15;;;;;;;2.30;2.10;;;-1.90;99.90;;;;;;5054414;28;20759;-54
2022/01/20 01:52:42;;;;;;;2.73;2.43;;;-1.90;99.90;;;;;;5049215;28;20807;-56
2022/01/20 01:55:10;;;;;;;2.20;2.00;;;-1.80;99.90;;;;;;5051971;28;20871;-57
2022/01/20 01:57:37;;;;;;;3.53;2.67;;;-1.70;99.90;;;;;;5057106;28;20497;-57
2022/01/20 02:00:07;;;;;;;5.10;3.50;;;-1.50;99.90;;;;;;5046324;28;20513;-57
2022/01/20 02:02:34;;;;;;;4.10;3.00;;;-1.40;99.90;;;;;;5055860;28;20982;-55
2022/01/20 02:05:04;;;;;;;5.83;3.30;;;-1.30;99.90;;;;;;5050720;28;20490;-55
2022/01/20 02:08:03;;;;;;;3.00;2.50;;;-1.30;99.90;;;;;;5044546;28;20471;-56
2022/01/20 02:18:49;;;;;;;3.67;2.57;;;-1.00;99.90;;;;;;5045008;28;20467;-58
2022/01/20 02:21:18;;;;;;;3.30;2.60;;;-0.90;99.90;;;;;;5053346;28;20444;-57
2022/01/20 02:23:46;;;;;;;4.87;2.90;;;-0.90;99.90;;;;;;5050750;28;20937;-56
2022/01/20 02:26:13;;;;;;;4.27;3.60;;;-0.80;99.90;;;;;;5050853;28;20485;-56
2022/01/20 02:28:41;;;;;;;4.03;3.27;;;-0.70;99.90;;;;;;5060331;28;20513;-56
2022/01/20 02:31:08;;;;;;;3.57;3.17;;;-0.60;99.90;;;;;;5053823;28;20473;-57
2022/01/20 02:33:35;;;;;;;6.33;3.60;;;-0.60;99.90;;;;;;5048294;28;20481;-57
2022/01/20 02:36:07;;;;;;;4.77;2.90;;;-0.50;99.90;;;;;;5058260;28;20450;-57
2022/01/20 02:38:41;;;;;;;5.73;3.10;;;-0.40;99.90;;;;;;5058450;28;20457;-57
2022/01/20 02:46:38;;;;;;;3.67;2.93;;;-0.40;99.90;;;;;;5057621;28;20438;-58
2022/01/20 02:49:07;;;;;;;5.00;3.10;;;-0.40;99.90;;;;;;5062006;28;20563;-58
2022/01/20 02:51:35;;;;;;;3.40;3.10;;;-0.50;99.90;;;;;;5047872;28;20460;-56
2022/01/20 02:54:03;;;;;;;5.10;3.67;;;-0.50;99.90;;;;;;5053739;28;21082;-56
2022/01/20 02:56:30;;;;;;;3.83;3.43;;;-0.50;99.90;;;;;;5046835;28;20518;-57
2022/01/20 02:58:57;;;;;;;6.13;3.63;;;-0.50;99.90;;;;;;5053394;28;20523;-56
2022/01/20 03:01:24;;;;;;;4.60;4.17;;;-0.40;99.90;;;;;;5049827;28;20481;-56
2022/01/20 03:03:51;;;;;;;4.17;3.77;;;-0.40;99.90;;;;;;5048981;28;20474;-60
2022/01/20 03:06:18;;;;;;;5.13;3.70;;;-0.90;99.90;;;;;;5064712;28;20613;-57
2022/01/20 03:08:45;;;;;;;4.70;3.30;;;-1.10;99.90;;;;;;5050003;28;20499;-57
2022/01/20 03:11:13;;;;;;;3.33;3.00;;;-1.00;99.90;;;;;;5046768;28;20971;-56
2022/01/20 03:13:40;;;;;;;2.70;2.50;;;-0.80;99.90;;;;;;5060906;28;20475;-56
2022/01/20 03:16:07;;;;;;;2.90;2.70;;;-0.70;99.90;;;;;;5048628;28;20474;-58
2022/01/20 03:18:34;;;;;;;3.63;2.90;;;-0.60;99.90;;;;;;5045292;28;20812;-57
2022/01/20 03:21:01;;;;;;;3.33;2.80;;;-0.50;99.90;;;;;;5048511;28;20465;-57
2022/01/20 03:23:28;;;;;;;3.00;2.70;;;-0.50;99.90;;;;;;5045695;28;20476;-57
2022/01/20 03:25:55;;;;;;;3.07;2.77;;;-0.60;99.90;;;;;;5050177;28;20486;-58
2022/01/20 03:28:24;;;;;;;5.43;3.10;;;-0.60;99.90;;;;;;5057012;28;20945;-56
2022/01/20 03:30:51;;;;;;;4.97;2.90;;;-0.50;99.90;;;;;;5056088;28;20484;-57
2022/01/20 03:33:18;;;;;;;4.23;3.17;;;-0.30;99.90;;;;;;5047242;28;20999;-56
2022/01/20 03:35:45;;;;;;;4.63;4.17;;;-0.20;99.90;;;;;;5044526;28;20477;-58
2022/01/20 03:38:13;;;;;;;3.10;2.57;;;-0.10;99.90;;;;;;5062611;28;20487;-59
2022/01/20 03:40:39;;;;;;;5.00;3.13;;;0.00;99.90;;;;;;5038357;28;20578;-56
2022/01/20 03:43:06;;;;;;;3.27;2.53;;;0.00;99.90;;;;;;5047945;28;20480;-57
2022/01/20 03:45:35;;;;;;;3.63;2.67;;;0.00;99.90;;;;;;5059991;28;20526;-56
2022/01/20 03:48:09;;;;;;;5.73;3.10;;;0.00;99.90;;;;;;5053570;28;20468;-58
2022/01/20 03:53:20;;;;;;;2.80;2.50;;;-0.20;99.90;;;;;;5054933;28;20460;-58
2022/01/20 03:55:47;;;;;;;3.50;2.40;;;-0.10;99.90;;;;;;5058747;28;20843;-58
2022/01/20 03:58:14;;;;;;;4.73;3.07;;;0.00;99.90;;;;;;5050851;28;20497;-57
2022/01/20 04:00:44;;;;;;;3.90;3.10;;;0.10;99.90;;;;;;5051017;28;20471;-58
2022/01/20 04:03:11;;;;;;;6.83;3.30;;;0.20;99.90;;;;;;5062951;28;20522;-57
2022/01/20 04:05:45;;;;;;;4.73;2.90;;;0.20;99.90;;;;;;5054685;28;20817;-57
2022/01/20 04:08:12;;;;;;;2.83;2.63;;;0.30;99.90;;;;;;5053310;28;20490;-57
2022/01/20 04:10:39;;;;;;;5.70;3.13;;;0.30;99.90;;;;;;5049091;28;20505;-56
2022/01/20 04:13:06;;;;;;;4.63;3.47;;;0.30;99.90;;;;;;5055099;28;20480;-58
2022/01/20 04:15:38;;;;;;;4.83;3.13;;;-0.30;99.90;;;;;;5048159;28;20468;-58
2022/01/20 04:18:08;;;;;;;4.90;3.70;;;-0.70;99.90;;;;;;5051750;28;21011;-56
2022/01/20 04:20:35;;;;;;;4.33;3.30;;;-1.00;99.90;;;;;;5053849;28;20439;-57
2022/01/20 04:23:02;;;;;;;4.00;2.90;;;-0.80;99.90;;;;;;5051860;28;20434;-56
2022/01/20 04:25:29;;;;;;;4.10;3.60;;;-0.60;99.90;;;;;;5048071;28;20549;-57
2022/01/20 04:27:56;;;;;;;2.93;2.70;;;-0.50;99.90;;;;;;5060242;28;20529;-57
2022/01/20 04:30:23;;;;;;;5.27;3.23;;;-0.50;99.90;;;;;;5055639;28;21027;-57
2022/01/20 04:32:50;;;;;;;4.50;3.00;;;-0.30;99.90;;;;;;5049357;28;20450;-56
2022/01/20 04:35:20;;;;;;;4.20;2.80;;;-0.20;99.90;;;;;;5050356;28;20481;-56
2022/01/20 04:37:49;;;;;;;3.63;3.20;;;-0.10;99.90;;;;;;5048656;28;20457;-56
2022/01/20 04:40:16;;;;;;;6.73;5.27;;;0.00;99.90;;;;;;5047652;28;20438;-56
2022/01/20 04:42:46;;;;;;;3.40;2.90;;;0.00;99.90;;;;;;5042420;28;20551;-56
2022/01/20 04:45:18;;;;;;;3.67;2.87;;;-0.10;99.90;;;;;;5046463;28;20466;-64
2022/01/20 04:47:51;;;;;;;3.80;2.97;;;-0.10;99.90;;;;;;5048445;28;20455;-56
2022/01/20 04:58:45;;;;;;;3.77;3.40;;;0.10;99.90;;;;;;5046704;28;20456;-58
2022/01/20 05:01:12;;;;;;;5.20;3.27;;;0.10;99.90;;;;;;5055349;28;20450;-58
2022/01/20 05:03:39;;;;;;;4.80;4.30;;;-0.30;99.90;;;;;;5055590;28;20450;-56
2022/01/20 05:06:09;;;;;;;5.03;4.40;;;-0.30;99.90;;;;;;5059682;28;20469;-55
2022/01/20 05:08:36;;;;;;;4.03;3.63;;;-0.20;99.90;;;;;;5111860;22;20563;-56
2022/01/20 05:11:04;;;;;;;5.20;4.17;;;-0.10;99.90;;;;;;5051750;28;20581;-55
2022/01/20 05:13:37;;;;;;;4.80;4.27;;;0.00;99.90;;;;;;5055795;28;20487;-58
2022/01/20 05:16:04;;;;;;;5.33;4.80;;;0.00;99.90;;;;;;5051643;28;20758;-55
2022/01/20 05:18:31;;;;;;;5.40;4.90;;;0.10;99.90;;;;;;5051660;28;20504;-56
2022/01/20 05:20:58;;;;;;;4.47;4.00;;;0.10;99.90;;;;;;5047992;28;20449;-56
2022/01/20 05:23:27;;;;;;;9.17;6.03;;;0.10;99.90;;;;;;5065217;28;20570;-56
2022/01/20 05:25:54;;;;;;;4.77;4.23;;;0.20;99.90;;;;;;5054821;28;20474;-57
2022/01/20 05:28:21;;;;;;;10.73;7.90;;;0.20;99.90;;;;;;5048778;28;20906;-57
2022/01/20 05:30:48;;;;;;;4.87;4.37;;;0.20;99.90;;;;;;5061165;28;21040;-56
2022/01/20 05:33:15;;;;;;;4.87;3.93;;;0.10;99.90;;;;;;5058548;28;20834;-57
2022/01/20 05:35:42;;;;;;;4.50;4.10;;;-0.60;99.90;;;;;;5044385;28;20486;-56
2022/01/20 05:38:09;;;;;;;4.40;3.87;;;-0.70;99.90;;;;;;5041361;28;20488;-57
2022/01/20 05:40:37;;;;;;;6.37;4.60;;;-0.50;99.90;;;;;;5047498;28;20571;-57
2022/01/20 05:43:04;;;;;;;7.37;5.63;;;-0.60;99.90;;;;;;5046463;28;20484;-56
2022/01/20 05:45:31;;;;;;;7.03;6.17;;;-0.60;99.90;;;;;;5044851;28;20476;-63
2022/01/20 05:48:10;;;;;;;6.80;5.53;;;-0.50;99.90;;;;;;5066905;28;20511;-56
2022/01/20 05:50:37;;;;;;;6.50;5.90;;;-0.40;99.90;;;;;;5054789;28;20477;-55
2022/01/20 05:53:05;;;;;;;6.93;5.40;;;-0.40;99.90;;;;;;5054718;28;20480;-55
2022/01/20 05:55:33;;;;;;;6.70;4.83;;;-0.60;99.90;;;;;;5050121;28;20455;-57
2022/01/20 05:58:01;;;;;;;7.53;5.20;;;-0.80;99.90;;;;;;5055673;28;20466;-58
2022/01/20 06:00:29;;;;;;;7.37;5.30;;;-0.90;99.90;;;;;;5047002;28;20708;-54
2022/01/20 06:05:41;;;;;;;7.00;6.30;;;-0.50;99.90;;;;;;5054612;28;21069;-55
2022/01/20 06:08:09;;;;;;;7.03;6.33;;;-0.50;99.90;;;;;;5057594;28;20477;-57
2022/01/20 06:10:36;;;;;;;8.70;7.33;;;-0.40;99.90;;;;;;5043381;28;20480;-56
2022/01/20 06:13:05;;;;;;;8.60;7.10;;;-0.80;99.90;;;;;;5044335;28;20486;-56
2022/01/20 06:15:32;;;;;;;8.93;8.03;;;-1.00;99.90;;;;;;5052786;28;20474;-58
2022/01/20 06:17:59;;;;;;;7.67;6.80;;;-1.10;99.90;;;;;;5046071;28;20545;-57
2022/01/20 06:20:27;;;;;;;7.87;6.50;;;-1.00;99.90;;;;;;5049308;28;20997;-56
2022/01/20 06:22:54;;;;;;;9.87;6.20;;;-0.90;99.90;;;;;;5046506;28;20905;-56
2022/01/20 06:25:21;;;;;;;7.80;6.47;;;-0.80;99.90;;;;;;5052108;28;20473;-57
2022/01/20 06:27:48;;;;;;;6.27;5.67;;;-1.00;99.90;;;;;;5050015;28;20967;-56
2022/01/20 06:30:16;;;;;;;9.50;5.47;;;-1.00;99.90;;;;;;5051862;28;20921;-60
2022/01/20 06:32:44;;;;;;;6.87;5.80;;;-0.80;99.90;;;;;;5059657;28;20479;-57
2022/01/20 06:35:11;;;;;;;6.80;5.93;;;-0.70;99.90;;;;;;5048774;28;20497;-57
2022/01/20 06:37:38;;;;;;;6.13;4.90;;;-0.60;99.90;;;;;;5058225;28;20480;-57
2022/01/20 06:40:07;;;;;;;7.30;5.60;;;-0.50;99.90;;;;;;5054484;28;20827;-57
2022/01/20 06:42:34;;;;;;;8.27;6.70;;;-0.40;99.90;;;;;;5050081;28;20811;-55
2022/01/20 06:45:02;;;;;;;16.70;10.30;;;-0.40;99.90;;;;;;5054460;28;20447;-55
2022/01/20 06:47:30;;;;;;;11.70;9.13;;;-0.30;99.90;;;;;;5064011;28;20446;-56
2022/01/20 06:49:57;;;;;;;12.87;10.37;;;-0.30;99.90;;;;;;5051924;28;20542;-56
2022/01/20 06:52:24;;;;;;;20.97;17.83;;;-0.20;99.90;;;;;;5049343;28;20457;-56
2022/01/20 06:54:51;;;;;;;11.20;10.03;;;-0.20;99.90;;;;;;5046136;28;20478;-57
2022/01/20 06:57:18;;;;;;;6.23;5.63;;;-0.20;99.90;;;;;;5063796;28;20501;-58
2022/01/20 06:59:45;;;;;;;4.30;3.90;;;-0.30;99.90;;;;;;5049604;28;21012;-61
2022/01/20 07:02:12;;;;;;;4.90;3.93;;;-0.30;99.90;;;;;;5056264;28;20488;-58
2022/01/20 07:04:42;;;;;;;9.43;7.43;;;-0.20;99.90;;;;;;5059785;28;20970;-57
2022/01/20 07:07:08;;;;;;;6.90;5.80;;;-0.10;99.90;;;;;;5049969;28;20446;-57
2022/01/20 07:09:35;;;;;;;7.53;6.23;;;-0.10;99.90;;;;;;5051223;28;21008;-57
2022/01/20 07:12:04;;;;;;;9.10;5.43;;;0.00;99.90;;;;;;5051683;28;20519;-57
2022/01/20 07:14:31;;;;;;;10.90;9.60;;;-0.10;99.90;;;;;;5052708;28;20562;-56
2022/01/20 07:16:58;;;;;;;10.67;9.67;;;-0.10;99.90;;;;;;5042217;28;20449;-59
2022/01/20 07:19:25;;;;;;;10.40;8.90;;;-0.10;99.90;;;;;;5052894;28;20540;-56
2022/01/20 07:21:54;;;;;;;12.73;10.17;;;-0.10;99.90;;;;;;5059064;28;20438;-56
2022/01/20 07:24:20;;;;;;;10.57;9.50;;;-0.10;99.90;;;;;;5047667;28;20489;-56
2022/01/20 07:26:47;;;;;;;12.97;8.60;;;0.00;99.90;;;;;;5054926;28;20497;-58
2022/01/20 07:29:15;;;;;;;13.03;9.50;;;0.10;99.90;;;;;;5063542;28;20719;-57
2022/01/20 07:31:42;;;;;;;10.23;8.30;;;0.10;99.90;;;;;;5041138;28;20874;-59
2022/01/20 07:34:09;;;;;;;12.20;10.00;;;0.10;99.90;;;;;;5052065;28;20850;-59
2022/01/20 07:36:36;;;;;;;10.80;9.40;;;0.10;99.90;;;;;;5056751;28;20480;-56
2022/01/20 07:39:04;;;;;;;9.77;8.20;;;0.00;99.90;;;;;;5054471;28;20484;-57
2022/01/20 07:41:32;;;;;;;8.30;7.37;;;0.10;99.90;;;;;;5044788;28;20475;-57
2022/01/20 07:43:59;;;;;;;9.40;7.87;;;0.10;99.90;;;;;;5053228;28;20475;-58
2022/01/20 07:46:26;;;;;;;11.37;8.53;;;0.10;99.90;;;;;;5056783;28;20482;-59
2022/01/20 07:48:53;;;;;;;9.23;7.80;;;0.00;99.90;;;;;;5048300;28;20465;-56
2022/01/20 07:51:20;;;;;;;7.80;7.00;;;0.10;99.90;;;;;;5055690;28;20522;-57
2022/01/20 07:53:47;;;;;;;11.40;9.10;;;0.20;99.90;;;;;;5066406;28;20465;-57
2022/01/20 07:56:16;;;;;;;13.60;10.73;;;0.20;99.90;;;;;;5053815;28;20496;-56
2022/01/20 07:58:42;;;;;;;11.27;8.03;;;0.10;99.90;;;;;;5053822;28;20959;-56
2022/01/20 08:01:10;;;;;;;13.80;9.30;;;-0.20;99.90;;;;;;5063677;28;20475;-59
2022/01/20 08:03:37;;;;;;;11.70;8.47;;;-0.20;99.90;;;;;;5056493;28;20478;-57
2022/01/20 08:06:04;;;;;;;12.80;8.80;;;-0.10;99.90;;;;;;5049343;28;20487;-55
2022/01/20 08:08:31;;;;;;;13.57;10.03;;;0.00;99.90;;;;;;5054682;28;20501;-57
2022/01/20 08:10:58;;;;;;;13.20;9.23;;;0.00;99.90;;;;;;5061099;28;20514;-57
2022/01/20 08:13:26;;;;;;;11.70;8.60;;;-0.10;99.90;;;;;;5046927;28;20990;-56
2022/01/20 08:15:53;;;;;;;9.63;8.63;;;0.00;99.90;;;;;;5045274;28;20453;-60
2022/01/20 08:18:20;;;;;;;8.63;7.80;;;0.10;99.90;;;;;;5054961;28;20485;-59
2022/01/20 08:20:47;;;;;;;9.37;7.63;;;0.20;99.90;;;;;;5058703;28;20464;-56
2022/01/20 08:23:14;;;;;;;7.70;6.27;;;0.30;99.90;;;;;;5053768;28;20481;-57
2022/01/20 08:25:41;;;;;;;10.60;7.27;;;0.20;99.90;;;;;;5065060;28;20537;-58
2022/01/20 08:28:08;;;;;;;9.67;7.20;;;0.30;99.90;;;;;;5064651;28;20466;-56
2022/01/20 08:30:38;;;;;;;9.00;8.23;;;0.30;99.90;;;;;;5048276;28;20941;-59
2022/01/20 08:33:05;;;;;;;8.80;7.90;;;0.40;99.90;;;;;;5062728;28;20480;-59
2022/01/20 08:35:32;;;;;;;7.47;6.87;;;0.40;99.90;;;;;;5050603;28;20479;-57
2022/01/20 08:38:00;;;;;;;7.63;6.90;;;0.50;99.90;;;;;;5051200;28;20945;-56
2022/01/20 08:40:28;;;;;;;8.67;7.87;;;0.50;99.90;;;;;;5051203;28;20444;-59
2022/01/20 08:42:56;;;;;;;10.03;7.73;;;0.20;99.90;;;;;;5055935;28;20472;-58
2022/01/20 08:45:25;;;;;;;8.30;6.70;;;0.20;99.90;;;;;;5056351;28;20850;-56
2022/01/20 08:47:55;;;;;;;8.87;6.53;;;0.30;99.90;;;;;;5041082;28;20886;-58
2022/01/20 08:50:22;;;;;;;11.47;7.87;;;0.40;99.90;;;;;;5053891;28;20509;-57
2022/01/20 08:52:49;;;;;;;7.57;6.67;;;0.30;99.90;;;;;;5063017;28;20521;-56
2022/01/20 08:55:17;;;;;;;7.67;6.10;;;0.40;99.90;;;;;;5049558;28;20999;-56
2022/01/20 08:57:45;;;;;;;6.90;6.30;;;0.40;99.90;;;;;;5056586;28;20476;-57
2022/01/20 09:00:14;;;;;;;10.30;9.00;;;0.50;99.90;;;;;;5060234;28;20477;-57
2022/01/20 09:02:41;;;;;;;9.43;7.60;;;0.30;99.90;;;;;;5058647;28;20956;-57
2022/01/20 09:05:10;;;;;;;10.63;9.60;;;0.10;99.90;;;;;;5054000;28;20536;-58
2022/01/20 09:07:37;;;;;;;19.47;15.07;;;0.20;99.90;;;;;;5064229;28;20554;-57
2022/01/20 09:10:07;;;;;;;13.63;12.23;;;0.30;99.90;;;;;;5057414;28;20492;-58
2022/01/20 09:15:28;;;;;;;15.43;12.63;;;0.20;99.90;;;;;;5058124;28;20439;-57
2022/01/20 09:17:56;;;;;;;12.87;11.43;;;0.10;99.90;;;;;;5045433;28;20446;-56
2022/01/20 09:20:25;;;;;;;13.23;11.00;;;0.30;99.90;;;;;;5055465;28;20447;-56
2022/01/20 09:22:54;;;;;;;17.77;15.97;;;0.30;99.90;;;;;;5044604;28;20501;-57
2022/01/20 09:25:22;;;;;;;26.27;19.90;;;0.50;99.90;;;;;;5049578;28;20495;-56
2022/01/20 09:27:51;;;;;;;26.63;19.10;;;0.60;99.90;;;;;;5062756;28;20443;-57
2022/01/20 09:30:19;;;;;;;16.13;13.57;;;0.70;99.90;;;;;;5055165;28;20547;-57
2022/01/20 09:32:57;;;;;;;14.60;11.70;;;0.70;99.90;;;;;;5057655;28;20493;-57
2022/01/20 09:35:30;;;;;;;18.20;13.10;;;0.60;99.90;;;;;;5064116;28;20479;-57
2022/01/20 09:37:57;;;;;;;16.50;10.87;;;0.40;99.90;;;;;;5061291;28;20810;-58
2022/01/20 09:40:24;;;;;;;20.00;17.00;;;0.40;99.90;;;;;;5051699;28;20485;-57
2022/01/20 09:42:51;;;;;;;22.43;16.73;;;0.50;99.90;;;;;;5053352;28;20488;-57
2022/01/20 09:45:18;;;;;;;18.87;13.50;;;0.60;99.90;;;;;;5064549;28;20447;-57
2022/01/20 09:47:46;;;;;;;15.70;13.53;;;0.70;99.90;;;;;;5049852;28;20473;-56
2022/01/20 09:50:15;;;;;;;16.83;13.80;;;0.80;99.90;;;;;;5059051;28;20476;-57
2022/01/20 09:52:44;;;;;;;16.37;12.97;;;0.80;99.90;;;;;;5061351;28;20554;-57
2022/01/20 09:55:11;;;;;;;17.33;12.50;;;0.90;99.90;;;;;;5049280;28;20956;-58
2022/01/20 09:57:38;;;;;;;13.57;11.63;;;0.70;99.90;;;;;;5056543;28;20475;-57
2022/01/20 10:00:08;;;;;;;18.00;11.67;;;0.40;99.90;;;;;;5061444;28;20461;-59
2022/01/20 10:02:35;;;;;;;17.60;15.20;;;0.40;99.90;;;;;;5056054;28;20478;-58
2022/01/20 10:05:03;;;;;;;27.00;16.53;;;0.40;99.90;;;;;;5056819;28;20475;-57
2022/01/20 10:07:35;;;;;;;15.20;13.47;;;0.50;99.90;;;;;;5058971;28;20812;-57
2022/01/20 10:10:05;;;;;;;19.07;15.17;;;0.60;99.90;;;;;;5058214;28;20517;-58
2022/01/20 10:12:34;;;;;;;16.57;12.47;;;0.70;99.90;;;;;;5049619;28;21071;-59
2022/01/20 10:15:02;;;;;;;13.13;11.20;;;0.70;99.90;;;;;;5053735;28;20459;-56
2022/01/20 10:17:30;;;;;;;19.73;12.20;;;0.40;99.90;;;;;;5059222;28;20454;-57
2022/01/20 10:20:00;;;;;;;12.03;9.53;;;0.40;99.90;;;;;;5051270;28;20549;-57
2022/01/20 10:22:28;;;;;;;11.90;8.10;;;0.60;99.90;;;;;;5051423;28;20989;-56
2022/01/20 10:25:02;;;;;;;5.83;5.13;;;0.60;99.90;;;;;;5061813;28;20476;-56
2022/01/20 10:27:31;;;;;;;17.93;12.40;;;0.70;99.90;;;;;;5057427;28;20534;-56
2022/01/20 10:30:00;;;;;;;16.57;13.30;;;0.80;99.90;;;;;;5045827;28;20455;-57
2022/01/20 10:32:28;;;;;;;21.10;16.70;;;0.90;99.90;;;;;;5055637;28;20522;-57
2022/01/20 10:35:03;;;;;;;14.20;12.70;;;1.00;99.90;;;;;;5051717;28;20509;-56
2022/01/20 10:37:31;;;;;;;12.97;11.77;;;1.00;99.90;;;;;;5055857;28;20446;-57
2022/01/20 10:40:07;;;;;;;15.70;12.13;;;1.10;99.90;;;;;;5055209;28;20570;-59
2022/01/20 10:42:39;;;;;;;22.77;15.87;;;1.10;99.90;;;;;;5059199;28;20440;-57
2022/01/20 10:45:07;;;;;;;14.47;12.93;;;1.10;99.90;;;;;;5058860;28;20549;-57
2022/01/20 10:47:36;;;;;;;12.77;11.50;;;1.10;99.90;;;;;;5055373;28;20478;-57
2022/01/20 10:50:13;;;;;;;15.40;11.47;;;1.10;99.90;;;;;;5052783;28;20468;-58
2022/01/20 10:52:44;;;;;;;11.47;10.13;;;1.00;99.90;;;;;;5062144;28;20511;-58
2022/01/20 10:55:22;;;;;;;11.27;10.10;;;1.00;99.90;;;;;;5063074;28;20505;-58
2022/01/20 10:57:52;;;;;;;10.87;8.33;;;0.90;99.90;;;;;;5049795;28;20807;-57
2022/01/20 11:00:20;;;;;;;11.67;10.00;;;0.70;99.90;;;;;;5052408;28;20467;-57
2022/01/20 11:02:53;;;;;;;13.77;10.53;;;0.60;99.90;;;;;;5059812;28;20456;-58
2022/01/20 11:05:21;;;;;;;17.00;11.80;;;0.80;99.90;;;;;;5054417;28;20965;-57
2022/01/20 11:07:49;;;;;;;10.00;8.83;;;0.90;99.90;;;;;;5054401;28;20931;-56
2022/01/20 11:10:17;;;;;;;13.73;12.33;;;1.00;99.90;;;;;;5062257;22;20597;-58
2022/01/20 11:12:44;;;;;;;11.07;9.97;;;1.10;99.90;;;;;;5054732;28;20482;-57
2022/01/20 11:15:15;;;;;;;14.17;10.83;;;1.20;99.90;;;;;;5052048;28;20518;-58
2022/01/20 11:17:42;;;;;;;12.63;9.87;;;1.30;99.90;;;;;;5058888;28;20465;-58
2022/01/20 11:20:12;;;;;;;11.20;9.50;;;1.10;99.90;;;;;;5055347;28;20517;-58
2022/01/20 11:22:51;;;;;;;12.63;9.73;;;0.80;99.90;;;;;;5050801;28;20528;-60
2022/01/20 11:25:21;;;;;;;11.50;8.87;;;1.00;99.90;;;;;;5054182;28;20469;-56
2022/01/20 11:27:51;;;;;;;10.90;8.23;;;1.10;99.90;;;;;;5064503;28;20451;-57
2022/01/20 11:30:21;;;;;;;11.13;10.03;;;1.20;99.90;;;;;;5051925;28;20496;-56
2022/01/20 11:33:02;;;;;;;10.93;9.73;;;1.30;99.90;;;;;;5051940;28;20475;-56
2022/01/20 11:35:41;;;;;;;10.70;9.70;;;1.50;99.90;;;;;;5049040;28;20481;-65
2022/01/20 11:38:09;;;;;;;16.47;12.80;;;1.30;99.90;;;;;;5050946;28;20468;-58
2022/01/20 11:40:48;;;;;;;13.33;10.13;;;1.10;99.90;;;;;;5051080;28;20576;-56
2022/01/20 11:43:15;;;;;;;13.43;11.30;;;1.00;99.90;;;;;;5049684;28;20437;-58
2022/01/20 11:45:50;;;;;;;12.03;10.70;;;1.00;99.90;;;;;;5051047;28;20469;-58
2022/01/20 11:48:20;;;;;;;13.57;9.20;;;1.20;99.90;;;;;;5051562;28;20433;-58
2022/01/20 11:50:49;;;;;;;11.27;9.10;;;1.20;99.90;;;;;;5053198;28;20494;-57
2022/01/20 11:53:19;;;;;;;12.40;9.20;;;1.10;99.90;;;;;;5057543;28;20501;-61
2022/01/20 11:55:50;;;;;;;11.77;10.47;;;1.20;99.90;;;;;;5067709;28;20476;-63
2022/01/20 11:58:21;;;;;;;12.30;9.17;;;1.10;99.90;;;;;;5059321;28;20443;-57
2022/01/20 12:01:00;;;;;;;11.93;10.70;;;1.20;99.90;;;;;;5057419;28;20851;-57
2022/01/20 12:03:28;;;;;;;11.70;10.33;;;1.30;99.90;;;;;;5061701;28;20441;-59
2022/01/20 12:05:59;;;;;;;11.93;10.70;;;1.40;99.90;;;;;;5071701;28;20441;-63
2022/01/20 12:08:26;;;;;;;13.07;11.60;;;1.40;99.90;;;;;;5061635;28;20501;-59
2022/01/20 12:11:01;;;;;;;15.50;12.30;;;1.40;99.90;;;;;;5056241;28;20498;-57
2022/01/20 12:13:30;;;;;;;15.60;10.97;;;1.40;99.90;;;;;;5057226;28;21050;-57
2022/01/20 12:16:01;;;;;;;12.33;10.97;;;1.40;99.90;;;;;;5060513;28;20445;-58
2022/01/20 12:18:28;;;;;;;12.47;8.50;;;1.40;99.90;;;;;;5053557;28;20507;-58
2022/01/20 12:20:55;;;;;;;10.97;9.37;;;1.50;99.90;;;;;;5055226;28;20476;-58
2022/01/20 12:23:24;;;;;;;12.47;10.80;;;1.50;99.90;;;;;;5068097;28;20460;-57
2022/01/20 12:25:51;;;;;;;14.70;11.73;;;1.60;99.90;;;;;;5064476;28;20447;-57
2022/01/20 12:28:19;;;;;;;13.53;11.40;;;1.70;99.90;;;;;;5056020;28;20496;-57
2022/01/20 12:30:49;;;;;;;21.57;15.10;;;1.70;99.90;;;;;;5067457;28;20631;-59
2022/01/20 12:33:21;;;;;;;11.57;9.70;;;1.80;99.90;;;;;;5061440;28;20476;-59
2022/01/20 12:35:50;;;;;;;13.67;11.67;;;1.80;99.90;;;;;;5057054;28;20456;-57
2022/01/20 12:38:20;;;;;;;14.37;12.20;;;1.90;99.90;;;;;;5063877;28;20464;-58
2022/01/20 12:40:49;;;;;;;15.73;13.73;;;1.90;99.90;;;;;;5063336;28;20460;-61
2022/01/20 12:43:18;;;;;;;15.10;12.67;;;1.90;99.90;;;;;;5060330;28;21020;-61
2022/01/20 12:45:58;;;;;;;17.20;13.67;;;1.90;99.90;;;;;;5062704;28;21062;-56
2022/01/20 12:48:26;;;;;;;13.77;11.50;;;1.90;99.90;;;;;;5065898;28;20469;-57
2022/01/20 12:50:56;;;;;;;14.63;12.97;;;1.60;99.90;;;;;;5064931;28;20936;-57
2022/01/20 12:53:38;;;;;;;16.00;12.90;;;1.40;99.90;;;;;;5054054;28;20487;-57
2022/01/20 12:56:05;;;;;;;13.37;11.97;;;1.50;99.90;;;;;;5054138;28;20449;-57
2022/01/20 12:58:43;;;;;;;13.03;10.87;;;1.50;99.90;;;;;;5066534;28;20476;-58
2022/01/20 13:01:10;;;;;;;15.80;12.80;;;1.60;99.90;;;;;;5059034;28;20869;-58
2022/01/20 13:03:40;;;;;;;16.57;12.77;;;1.60;99.90;;;;;;5057764;28;20480;-57
2022/01/20 13:06:11;;;;;;;14.77;12.17;;;1.60;99.90;;;;;;5063720;28;20479;-57
2022/01/20 13:08:40;;;;;;;15.23;12.93;;;1.60;99.90;;;;;;5062660;28;20830;-58
2022/01/20 13:11:11;;;;;;;14.90;12.00;;;1.60;99.90;;;;;;5058460;28;20477;-57
2022/01/20 13:13:38;;;;;;;16.37;12.77;;;1.60;99.90;;;;;;5058475;28;20481;-57
2022/01/20 13:16:13;;;;;;;14.17;12.20;;;1.70;99.90;;;;;;5062626;28;20476;-61
2022/01/20 13:18:53;;;;;;;16.43;12.47;;;1.70;99.90;;;;;;5060426;28;20495;-59
2022/01/20 13:21:22;;;;;;;16.67;13.30;;;1.60;99.90;;;;;;5059490;28;20448;-58
2022/01/20 13:23:58;;;;;;;17.30;13.10;;;1.60;99.90;;;;;;5061675;28;20473;-58
2022/01/20 13:26:27;;;;;;;16.67;11.60;;;1.50;99.90;;;;;;5063186;28;20433;-60
2022/01/20 13:29:02;;;;;;;15.23;11.73;;;1.60;99.90;;;;;;5055688;28;21037;-58
2022/01/20 13:31:30;;;;;;;11.47;9.93;;;1.60;99.90;;;;;;5056127;28;20875;-58
2022/01/20 13:34:07;;;;;;;11.50;10.23;;;1.70;99.90;;;;;;5064386;28;20571;-58
2022/01/20 13:36:39;;;;;;;10.73;8.70;;;1.70;99.90;;;;;;5062128;28;20929;-54
2022/01/20 13:39:07;;;;;;;9.10;8.30;;;1.80;99.90;;;;;;5052100;28;20718;-56
2022/01/20 13:41:34;;;;;;;11.40;9.10;;;1.80;99.90;;;;;;5057172;28;20445;-56
2022/01/20 13:47:10;;;;;;;10.60;9.60;;;1.90;99.90;;;;;;5064659;28;20451;-59
2022/01/20 13:49:50;;;;;;;8.70;7.90;;;1.90;99.90;;;;;;5052455;28;20849;-58
2022/01/20 13:52:19;;;;;;;9.07;8.10;;;1.80;99.90;;;;;;5058026;28;20478;-58
2022/01/20 13:54:49;;;;;;;9.17;8.20;;;1.80;99.90;;;;;;5065623;28;20458;-59
2022/01/20 13:57:17;;;;;;;9.63;8.63;;;1.90;99.90;;;;;;5059441;28;20472;-57